createdAt,value
2022-12-11T00:00:25.941Z,55.96
2022-12-11T00:02:52.809Z,53.67
2022-12-11T00:05:19.665Z,54.78
2022-12-11T00:07:46.357Z,58.76
2022-12-11T00:10:13.090Z,58.97
2022-12-11T00:12:39.751Z,62.12
2022-12-11T00:15:07.469Z,63.15
2022-12-11T00:17:34.485Z,61.99
2022-12-11T00:20:02.102Z,61.83
2022-12-11T00:22:31.057Z,61.17
2022-12-11T00:24:57.715Z,60.88
2022-12-11T00:27:24.416Z,60.60
2022-12-11T00:29:51.137Z,58.24
2022-12-11T00:32:17.812Z,56.38
2022-12-11T00:34:44.475Z,61.29
2022-12-11T00:37:11.176Z,60.85
2022-12-11T00:39:39.809Z,59.08
2022-12-11T00:42:07.871Z,58.54
2022-12-11T00:44:35.356Z,52.62
2022-12-11T00:47:02.408Z,50.10
2022-12-11T00:49:29.596Z,49.47
2022-12-11T00:51:56.478Z,54.36
2022-12-11T00:54:23.454Z,57.32
2022-12-11T00:56:50.714Z,53.94
2022-12-11T00:59:17.463Z,56.92
2022-12-11T01:01:44.187Z,59.48
2022-12-11T01:04:10.939Z,59.55
2022-12-11T01:06:37.556Z,57.01
2022-12-11T01:09:42.832Z,54.06
2022-12-11T01:12:09.627Z,53.28
2022-12-11T01:14:36.386Z,52.94
2022-12-11T01:17:03.305Z,54.37
2022-12-11T01:19:30.200Z,60.18
2022-12-11T01:21:56.907Z,63.87
2022-12-11T01:24:23.566Z,59.69
2022-12-11T01:26:50.509Z,57.20
2022-12-11T01:29:17.302Z,58.12
2022-12-11T01:31:44.149Z,58.47
2022-12-11T01:34:10.793Z,57.48
2022-12-11T01:36:37.620Z,58.81
2022-12-11T01:39:04.266Z,58.52
2022-12-11T01:41:31.013Z,57.38
2022-12-11T01:44:14.676Z,55.29
2022-12-11T01:46:42.861Z,55.41
2022-12-11T01:49:13.918Z,54.82
2022-12-11T01:51:51.815Z,53.07
2022-12-11T01:54:23.736Z,54.02
2022-12-11T01:56:55.291Z,54.69
2022-12-11T01:59:26.908Z,53.22
2022-12-11T02:02:16.215Z,50.20
2022-12-11T02:04:44.728Z,52.22
2022-12-11T02:07:12.024Z,53.43
2022-12-11T02:09:42.479Z,56.11
2022-12-11T02:12:42.728Z,58.92
2022-12-11T02:15:20.270Z,59.09
2022-12-11T02:18:06.497Z,57.45
2022-12-11T02:20:58.672Z,54.42
2022-12-11T02:23:48.001Z,54.71
2022-12-11T02:26:21.562Z,53.31
2022-12-11T02:28:58.919Z,54.87
2022-12-11T02:31:59.037Z,57.99
2022-12-11T02:34:43.258Z,59.32
2022-12-11T02:37:20.108Z,59.50
2022-12-11T02:39:49.553Z,59.96
2022-12-11T02:42:18.381Z,59.17
2022-12-11T02:44:48.762Z,59.40
2022-12-11T02:47:18.206Z,57.72
2022-12-11T02:49:49.315Z,59.66
2022-12-11T02:52:22.111Z,61.27
2022-12-11T02:54:51.995Z,62.14
2022-12-11T02:57:44.470Z,62.96
2022-12-11T03:00:12.523Z,61.52
2022-12-11T03:02:40.556Z,59.42
2022-12-11T03:05:08.635Z,61.44
2022-12-11T03:07:40.710Z,63.45
2022-12-11T03:10:11.889Z,61.84
2022-12-11T03:12:43.161Z,62.61
2022-12-11T03:15:16.613Z,62.30
2022-12-11T03:18:01.520Z,61.17
2022-12-11T03:20:43.856Z,61.31
2022-12-11T03:23:24.915Z,61.57
2022-12-11T03:26:22.319Z,63.13
2022-12-11T03:28:58.537Z,63.18
2022-12-11T03:31:40.618Z,64.23
2022-12-11T03:34:22.617Z,64.45
2022-12-11T03:36:51.733Z,63.34
2022-12-11T03:39:33.626Z,65.76
2022-12-11T03:42:03.585Z,65.85
2022-12-11T03:44:33.425Z,61.74
2022-12-11T03:47:03.845Z,60.20
2022-12-11T03:49:41.288Z,56.73
2022-12-11T03:52:12.396Z,60.96
2022-12-11T03:54:41.870Z,66.04
2022-12-11T03:57:12.262Z,64.34
2022-12-11T03:59:38.921Z,61.53
2022-12-11T04:02:11.038Z,61.40
2022-12-11T04:04:39.632Z,59.42
2022-12-11T04:07:07.011Z,55.06
2022-12-11T04:09:34.141Z,51.29
2022-12-11T04:12:00.887Z,49.82
2022-12-11T04:14:47.371Z,48.57
2022-12-11T04:17:34.183Z,48.03
2022-12-11T04:20:19.840Z,46.71
2022-12-11T04:23:05.064Z,47.05
2022-12-11T04:25:31.747Z,46.93
2022-12-11T04:27:58.414Z,48.07
2022-12-11T04:30:32.314Z,48.14
2022-12-11T04:33:00.780Z,47.88
2022-12-11T04:35:27.525Z,49.26
2022-12-11T04:37:54.305Z,49.08
2022-12-11T04:40:21.417Z,47.04
2022-12-11T04:42:48.310Z,46.77
2022-12-11T04:45:15.363Z,47.51
2022-12-11T04:47:42.451Z,48.57
2022-12-11T04:50:11.996Z,50.31
2022-12-11T04:52:38.746Z,48.37
2022-12-11T04:55:07.394Z,48.65
2022-12-11T04:57:34.936Z,48.47
2022-12-11T05:00:02.083Z,47.24
2022-12-11T05:02:28.895Z,47.00
2022-12-11T05:04:55.555Z,49.41
2022-12-11T05:07:22.244Z,47.49
2022-12-11T05:09:49.050Z,47.34
2022-12-11T05:12:15.720Z,45.84
2022-12-11T05:14:42.377Z,46.81
2022-12-11T05:17:09.159Z,48.39
2022-12-11T05:19:35.918Z,47.96
2022-12-11T05:22:02.587Z,50.38
2022-12-11T05:24:29.265Z,49.07
2022-12-11T05:26:56.128Z,48.59
2022-12-11T05:29:22.860Z,48.62
2022-12-11T05:31:49.628Z,47.55
2022-12-11T05:34:16.266Z,48.88
2022-12-11T05:36:43.068Z,46.21
2022-12-11T05:39:11.986Z,47.14
2022-12-11T05:41:38.719Z,48.95
2022-12-11T05:44:05.710Z,49.08
2022-12-11T05:46:32.587Z,47.81
2022-12-11T05:49:01.740Z,46.08
2022-12-11T05:51:29.718Z,46.42
2022-12-11T05:53:57.619Z,50.50
2022-12-11T05:56:28.538Z,52.30
2022-12-11T05:58:56.682Z,54.76
2022-12-11T06:01:31.350Z,54.03
2022-12-11T06:03:59.355Z,56.28
2022-12-11T06:06:27.219Z,57.93
2022-12-11T06:08:56.915Z,58.45
2022-12-11T06:11:25.965Z,57.70
2022-12-11T06:13:53.543Z,58.48
2022-12-11T06:16:21.687Z,54.72
2022-12-11T06:18:48.634Z,55.88
2022-12-11T06:21:20.972Z,56.70
2022-12-11T06:23:50.304Z,59.87
2022-12-11T06:26:18.287Z,55.70
2022-12-11T06:28:46.434Z,52.48
2022-12-11T06:31:14.127Z,51.40
2022-12-11T06:33:43.047Z,51.38
2022-12-11T06:36:18.653Z,52.82
2022-12-11T06:38:45.645Z,53.88
2022-12-11T06:41:12.711Z,58.01
2022-12-11T06:43:42.845Z,53.66
2022-12-11T06:46:15.896Z,52.43
2022-12-11T06:48:43.630Z,50.39
2022-12-11T06:51:13.719Z,50.01
2022-12-11T06:53:41.294Z,49.32
2022-12-11T06:56:11.896Z,49.52
2022-12-11T06:58:39.612Z,54.11
2022-12-11T07:01:16.449Z,51.10
2022-12-11T07:03:43.515Z,57.05
2022-12-11T07:06:10.506Z,56.38
2022-12-11T07:08:37.668Z,53.82
2022-12-11T07:11:11.347Z,50.96
2022-12-11T07:13:38.681Z,50.18
2022-12-11T07:16:10.702Z,48.78
2022-12-11T07:18:40.128Z,47.93
2022-12-11T07:21:08.123Z,48.45
2022-12-11T07:23:35.509Z,48.30
2022-12-11T07:26:09.247Z,48.32
2022-12-11T07:28:36.477Z,49.32
2022-12-11T07:31:15.817Z,48.31
2022-12-11T07:33:43.553Z,48.05
2022-12-11T07:36:12.467Z,51.20
2022-12-11T07:38:39.640Z,53.88
2022-12-11T07:41:10.970Z,53.79
2022-12-11T07:43:37.933Z,53.45
2022-12-11T07:46:12.199Z,51.39
2022-12-11T07:48:41.501Z,48.47
2022-12-11T07:51:39.011Z,52.29
2022-12-11T07:54:11.948Z,55.74
2022-12-11T07:56:43.698Z,55.09
2022-12-11T07:59:11.509Z,52.90
2022-12-11T08:01:39.837Z,49.63
2022-12-11T08:04:10.610Z,49.85
2022-12-11T08:06:40.623Z,50.05
2022-12-11T08:09:14.681Z,54.99
2022-12-11T08:11:45.922Z,55.75
2022-12-11T08:14:14.967Z,55.87
2022-12-11T08:16:43.971Z,51.30
2022-12-11T08:19:14.407Z,53.65
2022-12-11T08:21:41.463Z,50.50
2022-12-11T08:24:08.913Z,51.26
2022-12-11T08:26:36.688Z,50.75
2022-12-11T08:29:03.541Z,49.80
2022-12-11T08:31:30.380Z,48.44
2022-12-11T08:33:58.015Z,47.20
2022-12-11T08:36:25.372Z,50.02
2022-12-11T08:38:53.928Z,48.53
2022-12-11T08:41:26.961Z,56.73
2022-12-11T08:43:55.233Z,54.48
2022-12-11T08:46:25.620Z,59.93
2022-12-11T08:48:54.014Z,64.18
2022-12-11T08:51:24.595Z,61.23
2022-12-11T08:53:54.311Z,58.66
2022-12-11T08:56:23.555Z,55.30
2022-12-11T08:58:52.891Z,52.56
2022-12-11T09:01:23.619Z,50.58
2022-12-11T09:03:52.317Z,56.55
2022-12-11T09:06:22.346Z,59.07
2022-12-11T09:08:52.899Z,56.65
2022-12-11T09:11:33.942Z,55.02
2022-12-11T09:14:07.342Z,52.89
2022-12-11T09:16:37.955Z,51.31
2022-12-11T09:19:08.482Z,52.05
2022-12-11T09:21:35.219Z,56.93
2022-12-11T09:24:02.166Z,58.72
2022-12-11T09:26:30.186Z,52.38
2022-12-11T09:28:57.543Z,49.88
2022-12-11T09:31:28.837Z,48.23
2022-12-11T09:34:01.180Z,47.68
2022-12-11T09:36:28.543Z,45.92
2022-12-11T09:38:55.393Z,50.88
2022-12-11T09:41:22.077Z,54.46
2022-12-11T09:44:13.341Z,58.01
2022-12-11T09:46:41.680Z,56.71
2022-12-11T09:49:26.440Z,51.88
2022-12-11T09:52:14.475Z,48.72
2022-12-11T09:54:57.824Z,50.48
2022-12-11T09:57:30.363Z,47.89
2022-12-11T10:00:16.218Z,46.52
2022-12-11T10:03:14.282Z,45.61
2022-12-11T10:06:15.045Z,45.04
2022-12-11T10:09:41.306Z,49.08
2022-12-11T10:12:40.036Z,55.03
2022-12-11T10:15:31.546Z,53.27
2022-12-11T10:18:04.927Z,48.66
2022-12-11T10:20:39.190Z,51.85
2022-12-11T10:23:22.399Z,56.93
2022-12-11T10:26:21.661Z,61.19
2022-12-11T10:28:49.127Z,63.30
2022-12-11T10:31:43.786Z,63.54
2022-12-11T10:34:19.218Z,63.23
2022-12-11T10:36:46.078Z,62.68
2022-12-11T10:39:16.706Z,62.39
2022-12-11T10:41:47.140Z,62.06
2022-12-11T10:44:22.524Z,59.02
2022-12-11T10:47:14.568Z,55.26
2022-12-11T10:49:59.204Z,55.48
2022-12-11T10:52:28.620Z,60.76
2022-12-11T10:55:17.525Z,54.73
2022-12-11T10:57:45.309Z,59.83
2022-12-11T11:00:32.974Z,60.04
2022-12-11T11:03:01.598Z,55.45
2022-12-11T11:05:35.682Z,50.69
2022-12-11T11:08:12.682Z,49.20
2022-12-11T11:10:57.896Z,54.11
2022-12-11T11:13:28.176Z,57.58
2022-12-11T11:16:07.807Z,59.00
2022-12-11T11:18:34.866Z,60.48
2022-12-11T11:21:02.579Z,60.83
2022-12-11T11:23:29.732Z,57.07
2022-12-11T11:26:00.342Z,53.05
2022-12-11T11:28:37.808Z,51.56
2022-12-11T11:31:16.526Z,53.75
2022-12-11T11:34:03.097Z,57.04
2022-12-11T11:36:34.321Z,56.29
2022-12-11T11:39:25.908Z,54.84
2022-12-11T11:41:59.145Z,49.91
2022-12-11T11:44:36.915Z,47.02
2022-12-11T11:47:16.973Z,51.87
2022-12-11T11:50:16.331Z,58.58
2022-12-11T11:53:17.384Z,60.92
2022-12-11T11:56:01.889Z,60.54
2022-12-11T11:58:41.108Z,52.96
2022-12-11T12:01:19.845Z,50.21
2022-12-11T12:03:48.554Z,58.61
2022-12-11T12:06:57.451Z,59.77
2022-12-11T12:10:18.750Z,62.05
2022-12-11T12:13:47.671Z,62.82
2022-12-11T12:16:22.986Z,64.53
2022-12-11T12:19:08.327Z,64.15
2022-12-11T12:21:38.977Z,63.60
2022-12-11T12:24:48.013Z,63.30
2022-12-11T12:27:58.180Z,58.22
2022-12-11T12:30:22.881Z,53.85
2022-12-11T12:33:12.188Z,50.37
2022-12-11T12:36:18.163Z,51.42
2022-12-11T12:39:03.303Z,50.25
2022-12-11T12:42:16.495Z,50.29
2022-12-11T12:44:52.106Z,48.23
2022-12-11T12:47:20.030Z,51.58
2022-12-11T12:49:53.090Z,49.25
2022-12-11T12:52:37.122Z,47.03
2022-12-11T12:55:22.782Z,48.12
2022-12-11T12:58:00.482Z,46.77
2022-12-11T13:00:42.089Z,51.19
2022-12-11T13:03:21.710Z,51.87
2022-12-11T13:05:59.424Z,49.72
2022-12-11T13:08:42.637Z,54.01
2022-12-11T13:11:13.705Z,55.89
2022-12-11T13:13:42.974Z,55.11
2022-12-11T13:16:15.544Z,57.54
2022-12-11T13:18:45.434Z,57.47
2022-12-11T13:21:33.698Z,58.10
2022-12-11T13:24:19.228Z,55.76
2022-12-11T13:26:47.960Z,50.94
2022-12-11T13:29:41.479Z,58.87
2022-12-11T13:32:08.112Z,59.68
2022-12-11T13:34:42.908Z,56.05
2022-12-11T13:37:38.467Z,53.93
2022-12-11T13:40:42.921Z,57.27
2022-12-11T13:43:27.200Z,59.07
2022-12-11T13:46:00.758Z,57.14
2022-12-11T13:48:43.611Z,54.78
2022-12-11T13:51:19.809Z,59.79
2022-12-11T13:53:47.841Z,55.89
2022-12-11T13:56:20.825Z,55.25
2022-12-11T13:58:49.023Z,60.12
2022-12-11T14:01:33.385Z,62.63
2022-12-11T14:04:09.645Z,65.50
2022-12-11T14:06:38.686Z,66.13
2022-12-11T14:09:07.111Z,63.22
2022-12-11T14:11:43.556Z,65.16
2022-12-11T14:14:28.068Z,66.42
2022-12-11T14:16:55.037Z,65.96
2022-12-11T14:19:23.024Z,67.37
2022-12-11T14:21:59.475Z,67.10
2022-12-11T14:24:26.786Z,66.83
2022-12-11T14:26:55.258Z,67.87
2022-12-11T14:29:31.902Z,67.08
2022-12-11T14:32:07.111Z,65.55
2022-12-11T14:34:45.307Z,66.81
2022-12-11T14:37:15.899Z,64.66
2022-12-11T14:40:19.671Z,66.89
2022-12-11T14:43:01.169Z,67.71
2022-12-11T14:45:48.581Z,63.77
2022-12-11T14:48:53.869Z,67.73
2022-12-11T14:51:26.199Z,68.36
2022-12-11T14:53:54.822Z,68.94
2022-12-11T14:56:27.655Z,69.90
2022-12-11T14:59:06.395Z,70.74
2022-12-11T15:01:36.863Z,70.45
2022-12-11T15:04:19.592Z,69.49
2022-12-11T15:06:49.195Z,69.08
2022-12-11T15:09:41.419Z,67.53
2022-12-11T15:12:16.066Z,68.21
2022-12-11T15:15:01.374Z,67.11
2022-12-11T15:17:30.770Z,66.33
2022-12-11T15:20:07.543Z,65.95
2022-12-11T15:22:36.101Z,67.35
2022-12-11T15:25:03.693Z,66.30
2022-12-11T15:27:39.523Z,66.73
2022-12-11T15:30:27.699Z,67.17
2022-12-11T15:33:09.397Z,70.04
2022-12-11T15:35:39.225Z,70.23
2022-12-11T15:38:06.397Z,69.35
2022-12-11T15:40:33.312Z,67.31
2022-12-11T15:43:03.152Z,69.05
2022-12-11T15:45:29.928Z,69.48
2022-12-11T15:47:57.368Z,69.32
2022-12-11T15:50:26.371Z,68.67
2022-12-11T15:52:55.059Z,67.61
2022-12-11T15:55:25.376Z,64.58
2022-12-11T15:58:01.815Z,63.87
2022-12-11T16:00:29.141Z,67.81
2022-12-11T16:02:57.753Z,69.16
2022-12-11T16:05:25.888Z,68.04
2022-12-11T16:07:54.790Z,68.92
2022-12-11T16:10:22.675Z,69.36
2022-12-11T16:12:49.880Z,66.42
2022-12-11T16:15:23.272Z,67.75
2022-12-11T16:17:59.432Z,67.21
2022-12-11T16:20:26.301Z,67.12
2022-12-11T16:22:53.016Z,65.00
2022-12-11T16:25:19.791Z,64.07
2022-12-11T16:27:47.044Z,63.95
2022-12-11T16:30:14.296Z,63.06
2022-12-11T16:32:40.969Z,65.89
2022-12-11T16:35:07.858Z,66.14
2022-12-11T16:37:34.665Z,68.08
2022-12-11T16:40:01.395Z,66.31
2022-12-11T16:42:28.150Z,66.43
2022-12-11T16:44:54.803Z,63.88
2022-12-11T16:47:21.489Z,63.84
2022-12-11T16:49:48.172Z,62.66
2022-12-11T16:52:20.459Z,60.71
2022-12-11T16:54:48.752Z,59.29
2022-12-11T16:57:15.749Z,56.42
2022-12-11T16:59:43.408Z,58.18
2022-12-11T17:02:11.521Z,57.67
2022-12-11T17:04:38.525Z,62.08
2022-12-11T17:07:06.087Z,62.65
2022-12-11T17:09:33.341Z,64.43
2022-12-11T17:12:00.221Z,65.44
2022-12-11T17:14:27.222Z,66.11
2022-12-11T17:16:55.173Z,67.73
2022-12-11T17:19:22.325Z,67.59
2022-12-11T17:21:51.767Z,66.23
2022-12-11T17:24:18.874Z,65.79
2022-12-11T17:26:46.283Z,66.77
2022-12-11T17:29:13.116Z,65.20
2022-12-11T17:31:40.301Z,65.43
2022-12-11T17:34:07.278Z,67.03
2022-12-11T17:36:34.176Z,67.45
2022-12-11T17:39:00.963Z,65.50
2022-12-11T17:41:27.744Z,68.43
2022-12-11T17:43:55.563Z,65.34
2022-12-11T17:46:23.155Z,63.75
2022-12-11T17:48:50.140Z,67.20
2022-12-11T17:51:23.779Z,69.25
2022-12-11T17:53:55.329Z,71.41
2022-12-11T17:56:22.703Z,71.66
2022-12-11T17:58:49.866Z,69.88
2022-12-11T18:01:17.288Z,70.32
2022-12-11T18:03:44.347Z,70.57
2022-12-11T18:06:15.240Z,72.01
2022-12-11T18:08:42.773Z,72.81
2022-12-11T18:11:16.887Z,73.04
2022-12-11T18:13:45.505Z,74.51
2022-12-11T18:16:20.503Z,72.57
2022-12-11T18:18:48.505Z,72.37
2022-12-11T18:21:21.632Z,71.17
2022-12-11T18:23:50.862Z,69.38
2022-12-11T18:26:19.642Z,70.57
2022-12-11T18:28:47.885Z,71.24
2022-12-11T18:31:14.672Z,68.77
2022-12-11T18:33:44.201Z,68.86
2022-12-11T18:36:14.132Z,67.81
2022-12-11T18:38:42.172Z,65.74
2022-12-11T18:41:12.137Z,68.41
2022-12-11T18:43:41.227Z,69.57
2022-12-11T18:46:10.508Z,63.30
2022-12-11T18:48:37.788Z,62.80
2022-12-11T18:51:11.986Z,64.86
2022-12-11T18:53:39.453Z,60.66
2022-12-11T18:56:10.393Z,63.28
2022-12-11T18:58:37.873Z,62.03
2022-12-11T19:01:16.144Z,60.75
2022-12-11T19:03:44.218Z,59.55
2022-12-11T19:06:15.077Z,58.13
2022-12-11T19:08:42.678Z,56.81
2022-12-11T19:11:13.347Z,60.98
2022-12-11T19:13:39.995Z,61.64
2022-12-11T19:16:07.151Z,61.30
2022-12-11T19:18:35.205Z,64.42
2022-12-11T19:21:09.070Z,65.91
2022-12-11T19:23:37.971Z,64.96
2022-12-11T19:26:05.330Z,64.15
2022-12-11T19:28:34.337Z,63.43
2022-12-11T19:31:01.411Z,66.34
2022-12-11T19:33:28.460Z,66.48
2022-12-11T19:36:14.154Z,66.56
2022-12-11T19:38:43.026Z,66.10
2022-12-11T19:41:20.031Z,65.96
2022-12-11T19:43:48.482Z,68.30
2022-12-11T19:46:16.297Z,67.19
2022-12-11T19:48:43.468Z,69.24
2022-12-11T19:51:17.687Z,67.56
2022-12-11T19:53:47.844Z,67.66
2022-12-11T19:56:16.988Z,67.15
2022-12-11T19:58:44.027Z,65.43
2022-12-11T20:01:30.116Z,64.95
2022-12-11T20:04:01.009Z,65.66
2022-12-11T20:06:31.628Z,65.39
2022-12-11T20:08:59.128Z,65.66
2022-12-11T20:11:26.479Z,66.52
2022-12-11T20:13:55.495Z,67.33
2022-12-11T20:16:45.832Z,67.26
2022-12-11T20:19:10.114Z,64.99
2022-12-11T20:21:37.156Z,66.16
2022-12-11T20:24:04.154Z,64.50
2022-12-11T20:26:32.511Z,62.87
2022-12-11T20:28:59.605Z,65.60
2022-12-11T20:31:28.137Z,61.81
2022-12-11T20:33:57.102Z,60.24
2022-12-11T20:36:25.013Z,60.21
2022-12-11T20:38:52.880Z,60.83
2022-12-11T20:41:22.788Z,64.06
2022-12-11T20:43:50.681Z,61.58
2022-12-11T20:46:18.454Z,61.55
2022-12-11T20:48:45.776Z,60.89
2022-12-11T20:51:23.846Z,59.50
2022-12-11T20:53:58.483Z,59.38
2022-12-11T20:56:29.576Z,61.24
2022-12-11T20:58:58.143Z,60.16
2022-12-11T21:01:28.667Z,60.35
2022-12-11T21:03:55.497Z,62.77
2022-12-11T21:06:26.314Z,63.62
2022-12-11T21:08:54.124Z,65.24
2022-12-11T21:11:21.518Z,65.36
2022-12-11T21:13:51.666Z,64.71
2022-12-11T21:16:19.542Z,65.05
2022-12-11T21:18:46.939Z,66.47
2022-12-11T21:21:15.006Z,66.52
2022-12-11T21:23:41.904Z,64.44
2022-12-11T21:26:08.717Z,64.06
2022-12-11T21:28:35.911Z,65.37
2022-12-11T21:31:07.182Z,66.94
2022-12-11T21:33:34.213Z,68.82
2022-12-11T21:36:01.496Z,68.55
2022-12-11T21:38:28.883Z,69.05
2022-12-11T21:40:56.543Z,70.74
2022-12-11T21:43:24.816Z,70.29
2022-12-11T21:46:00.884Z,71.17
2022-12-11T21:48:28.481Z,72.07
2022-12-11T21:50:55.225Z,71.66
2022-12-11T21:53:21.933Z,72.54
2022-12-11T21:55:48.626Z,73.03
2022-12-11T21:58:15.627Z,72.07
2022-12-11T22:00:42.394Z,72.34
2022-12-11T22:03:09.186Z,72.49
2022-12-11T22:05:35.837Z,72.05
2022-12-11T22:08:02.617Z,71.52
2022-12-11T22:10:29.510Z,71.53
2022-12-11T22:12:56.300Z,72.02
2022-12-11T22:15:23.016Z,70.27
2022-12-11T22:17:50.094Z,70.76
2022-12-11T22:20:18.485Z,71.28
2022-12-11T22:22:46.653Z,70.82
2022-12-11T22:25:13.875Z,70.77
2022-12-11T22:27:40.844Z,70.65
2022-12-11T22:30:08.417Z,70.45
2022-12-11T22:32:35.213Z,70.62
2022-12-11T22:35:01.916Z,69.55
2022-12-11T22:37:29.465Z,71.13
2022-12-11T22:39:56.292Z,71.17
2022-12-11T22:42:23.054Z,72.29
2022-12-11T22:44:49.769Z,72.33
2022-12-11T22:47:16.547Z,71.90
2022-12-11T22:49:43.400Z,73.17
2022-12-11T22:52:10.547Z,71.42
2022-12-11T22:54:42.572Z,68.49
2022-12-11T22:57:09.583Z,69.24
2022-12-11T22:59:36.696Z,70.59
2022-12-11T23:02:03.703Z,72.00
2022-12-11T23:04:30.683Z,73.93
2022-12-11T23:06:57.879Z,74.40
2022-12-11T23:09:24.817Z,75.02
2022-12-11T23:11:52.209Z,74.46
2022-12-11T23:14:19.532Z,75.02
2022-12-11T23:16:46.378Z,75.33
2022-12-11T23:19:13.775Z,75.47
2022-12-11T23:21:40.516Z,74.21
2022-12-11T23:24:07.810Z,74.96
2022-12-11T23:26:34.541Z,74.74
2022-12-11T23:29:01.937Z,73.59
2022-12-11T23:31:30.114Z,73.37
2022-12-11T23:33:57.475Z,71.87
2022-12-11T23:36:25.944Z,71.20
2022-12-11T23:38:54.981Z,70.24
2022-12-11T23:41:22.714Z,66.87
2022-12-11T23:43:49.443Z,64.29
2022-12-11T23:46:21.849Z,63.00
2022-12-11T23:48:48.946Z,64.12
2022-12-11T23:51:19.074Z,65.58
2022-12-11T23:53:46.930Z,65.65
2022-12-11T23:56:19.289Z,64.88
2022-12-11T23:58:46.332Z,66.24
